createdAt,value
2022-10-10T00:01:45.317Z,5.63
2022-10-10T00:04:14.153Z,7.43
2022-10-10T00:06:42.733Z,8.33
2022-10-10T00:09:11.461Z,7.37
2022-10-10T00:11:40.196Z,7.00
2022-10-10T00:14:09.108Z,5.50
2022-10-10T00:16:39.154Z,4.37
2022-10-10T00:19:07.795Z,5.43
2022-10-10T00:21:36.403Z,5.57
2022-10-10T00:24:05.376Z,5.47
2022-10-10T00:26:34.084Z,4.00
2022-10-10T00:29:02.664Z,6.47
2022-10-10T00:31:31.370Z,7.17
2022-10-10T00:34:01.561Z,4.00
2022-10-10T00:36:30.282Z,5.93
2022-10-10T00:38:58.983Z,5.47
2022-10-10T00:41:29.041Z,5.67
2022-10-10T00:44:09.469Z,7.07
2022-10-10T00:46:38.195Z,7.13
2022-10-10T00:49:14.235Z,4.60
2022-10-10T00:51:45.160Z,3.33
2022-10-10T00:54:15.839Z,4.83
2022-10-10T00:56:48.795Z,5.97
2022-10-10T00:59:19.264Z,4.50
2022-10-10T01:01:48.325Z,4.03
2022-10-10T01:04:33.556Z,6.10
2022-10-10T01:07:04.885Z,6.77
2022-10-10T01:09:34.258Z,6.70
2022-10-10T01:12:13.183Z,8.57
2022-10-10T01:14:48.858Z,6.10
2022-10-10T01:17:26.094Z,5.87
2022-10-10T01:20:39.868Z,4.07
2022-10-10T01:23:34.074Z,3.57
2022-10-10T01:26:15.032Z,3.87
2022-10-10T01:28:50.928Z,5.90
2022-10-10T01:31:22.869Z,5.13
2022-10-10T01:34:02.219Z,5.33
2022-10-10T01:36:39.544Z,6.97
2022-10-10T01:39:15.637Z,6.87
2022-10-10T01:41:49.384Z,5.13
2022-10-10T01:44:20.719Z,6.97
2022-10-10T01:46:49.449Z,5.17
2022-10-10T01:49:18.639Z,3.77
2022-10-10T01:52:03.581Z,5.30
2022-10-10T01:54:42.870Z,6.37
2022-10-10T01:57:22.353Z,5.97
2022-10-10T02:00:06.533Z,5.73
2022-10-10T02:02:46.230Z,6.57
2022-10-10T02:05:21.971Z,9.20
2022-10-10T02:07:55.340Z,5.63
2022-10-10T02:10:27.832Z,3.13
2022-10-10T02:12:58.651Z,5.87
2022-10-10T02:15:32.497Z,5.20
2022-10-10T02:18:03.158Z,4.93
2022-10-10T02:20:33.335Z,4.83
2022-10-10T02:23:01.979Z,5.77
2022-10-10T02:25:32.983Z,3.47
2022-10-10T02:28:10.602Z,5.50
2022-10-10T02:30:45.746Z,4.90
2022-10-10T02:33:18.729Z,6.00
2022-10-10T02:35:49.622Z,5.33
2022-10-10T02:38:19.906Z,7.07
2022-10-10T02:40:50.178Z,5.50
2022-10-10T02:43:20.404Z,5.83
2022-10-10T02:45:50.881Z,6.03
2022-10-10T02:48:19.736Z,7.13
2022-10-10T02:50:48.529Z,7.03
2022-10-10T02:53:17.054Z,6.90
2022-10-10T02:55:45.718Z,5.20
2022-10-10T02:58:14.784Z,5.53
2022-10-10T03:00:43.483Z,7.73
2022-10-10T03:03:13.484Z,6.30
2022-10-10T03:05:41.997Z,7.07
2022-10-10T03:08:11.823Z,5.97
2022-10-10T03:10:40.898Z,7.97
2022-10-10T03:13:09.794Z,5.67
2022-10-10T03:15:38.525Z,8.00
2022-10-10T03:18:07.372Z,7.83
2022-10-10T03:20:38.885Z,4.07
2022-10-10T03:23:07.536Z,4.23
2022-10-10T03:25:36.278Z,7.47
2022-10-10T03:28:05.149Z,6.10
2022-10-10T03:30:33.834Z,6.77
2022-10-10T03:33:02.447Z,6.03
2022-10-10T03:35:31.232Z,5.77
2022-10-10T03:38:01.831Z,7.00
2022-10-10T03:40:31.122Z,6.03
2022-10-10T03:43:00.099Z,11.70
2022-10-10T03:45:28.863Z,6.40
2022-10-10T03:47:57.505Z,7.23
2022-10-10T03:50:26.460Z,6.63
2022-10-10T03:52:55.224Z,5.70
2022-10-10T03:55:25.333Z,10.67
2022-10-10T03:57:54.079Z,5.63
2022-10-10T04:00:22.934Z,7.13
2022-10-10T04:02:51.930Z,5.33
2022-10-10T04:05:20.977Z,6.17
2022-10-10T04:07:49.624Z,7.40
2022-10-10T04:10:18.633Z,6.10
2022-10-10T04:12:49.176Z,6.50
2022-10-10T04:15:18.118Z,6.80
2022-10-10T04:17:46.753Z,6.27
2022-10-10T04:20:15.466Z,6.20
2022-10-10T04:22:44.142Z,7.50
2022-10-10T04:25:13.413Z,7.67
2022-10-10T04:27:43.850Z,8.00
2022-10-10T04:30:14.876Z,4.53
2022-10-10T04:32:43.664Z,4.83
2022-10-10T04:35:12.306Z,8.07
2022-10-10T04:37:40.972Z,5.87
2022-10-10T04:40:10.897Z,11.13
2022-10-10T04:42:39.536Z,6.80
2022-10-10T04:45:09.152Z,6.93
2022-10-10T04:47:39.143Z,4.57
2022-10-10T04:50:08.555Z,7.50
2022-10-10T04:52:37.070Z,7.03
2022-10-10T04:55:06.493Z,5.27
2022-10-10T04:57:35.118Z,8.43
2022-10-10T05:00:04.032Z,6.73
2022-10-10T05:02:32.692Z,5.73
2022-10-10T05:05:03.413Z,7.40
2022-10-10T05:07:32.063Z,6.43
2022-10-10T05:10:00.662Z,8.17
2022-10-10T05:12:29.352Z,9.00
2022-10-10T05:14:57.975Z,8.03
2022-10-10T05:17:26.759Z,6.97
2022-10-10T05:19:55.508Z,8.97
2022-10-10T05:22:25.602Z,7.00
2022-10-10T05:24:54.467Z,7.40
2022-10-10T05:27:23.041Z,6.60
2022-10-10T05:29:51.644Z,6.70
2022-10-10T05:32:20.485Z,7.13
2022-10-10T05:34:49.190Z,6.77
2022-10-10T05:37:18.204Z,9.83
2022-10-10T05:39:54.483Z,8.50
2022-10-10T05:42:23.453Z,7.40
2022-10-10T05:44:52.330Z,11.47
2022-10-10T05:47:25.363Z,6.93
2022-10-10T05:49:56.060Z,8.17
2022-10-10T05:52:24.896Z,6.63
2022-10-10T05:54:54.995Z,6.23
2022-10-10T05:57:23.714Z,8.67
2022-10-10T05:59:52.395Z,8.00
2022-10-10T06:02:21.149Z,10.20
2022-10-10T06:04:49.931Z,7.23
2022-10-10T06:07:18.673Z,8.80
2022-10-10T06:09:47.440Z,6.70
2022-10-10T06:12:17.509Z,7.87
2022-10-10T06:14:46.088Z,6.37
2022-10-10T06:17:14.975Z,5.73
2022-10-10T06:19:43.640Z,6.63
2022-10-10T06:22:12.607Z,8.07
2022-10-10T06:24:41.400Z,11.50
2022-10-10T06:27:10.198Z,6.90
2022-10-10T06:29:40.831Z,7.97
2022-10-10T06:32:09.478Z,8.17
2022-10-10T06:34:38.274Z,8.73
2022-10-10T06:37:08.563Z,6.83
2022-10-10T06:39:40.457Z,9.10
2022-10-10T06:42:09.184Z,5.97
2022-10-10T06:44:39.705Z,6.97
2022-10-10T06:47:08.367Z,9.97
2022-10-10T06:49:37.222Z,6.97
2022-10-10T06:52:06.044Z,6.90
2022-10-10T06:54:34.827Z,7.73
2022-10-10T06:57:04.056Z,9.57
2022-10-10T06:59:32.884Z,6.00
2022-10-10T07:02:03.043Z,10.43
2022-10-10T07:04:31.777Z,8.43
2022-10-10T07:07:00.471Z,7.43
2022-10-10T07:09:29.252Z,8.83
2022-10-10T07:11:57.953Z,11.60
2022-10-10T07:14:26.640Z,6.70
2022-10-10T07:16:55.361Z,6.00
2022-10-10T07:19:26.342Z,7.93
2022-10-10T07:21:55.303Z,10.83
2022-10-10T07:24:24.283Z,6.43
2022-10-10T07:27:03.527Z,6.47
2022-10-10T07:29:35.715Z,6.50
2022-10-10T07:32:04.362Z,11.37
2022-10-10T07:34:36.944Z,7.43
2022-10-10T07:37:05.698Z,5.07
2022-10-10T07:39:34.339Z,5.20
2022-10-10T07:42:03.041Z,7.43
2022-10-10T07:44:34.595Z,6.47
2022-10-10T07:47:03.641Z,7.40
2022-10-10T07:49:33.793Z,7.57
2022-10-10T07:52:02.656Z,8.20
2022-10-10T07:54:31.859Z,5.93
2022-10-10T07:57:00.441Z,6.90
2022-10-10T07:59:29.078Z,5.23
2022-10-10T08:01:57.830Z,7.73
2022-10-10T08:04:26.512Z,10.17
2022-10-10T08:06:56.814Z,5.43
2022-10-10T08:09:28.945Z,5.93
2022-10-10T08:11:57.608Z,5.00
2022-10-10T08:14:26.119Z,5.90
2022-10-10T08:16:54.899Z,9.00
2022-10-10T08:19:23.555Z,7.23
2022-10-10T08:21:52.337Z,8.13
2022-10-10T08:24:22.480Z,5.83
2022-10-10T08:26:52.101Z,9.50
2022-10-10T08:29:20.766Z,5.73
2022-10-10T08:31:49.549Z,6.40
2022-10-10T08:34:18.570Z,7.77
2022-10-10T08:36:47.286Z,10.10
2022-10-10T08:39:17.367Z,7.80
2022-10-10T08:41:52.540Z,7.53
2022-10-10T08:44:26.493Z,10.23
2022-10-10T08:46:58.628Z,7.20
2022-10-10T08:49:34.338Z,9.68
2022-10-10T08:52:08.437Z,8.63
2022-10-10T08:54:39.178Z,9.70
2022-10-10T08:57:25.052Z,10.00
2022-10-10T08:59:59.022Z,11.88
2022-10-10T09:05:36.690Z,11.07
2022-10-10T09:08:17.000Z,9.00
2022-10-10T09:10:56.225Z,9.88
2022-10-10T09:13:48.997Z,11.75
2022-10-10T09:16:24.737Z,11.75
2022-10-10T09:19:03.090Z,10.68
2022-10-10T09:21:35.279Z,8.77
2022-10-10T09:24:08.182Z,10.45
2022-10-10T09:26:41.610Z,8.13
2022-10-10T09:29:29.058Z,12.30
2022-10-10T09:32:01.846Z,11.60
2022-10-10T09:34:36.401Z,10.35
2022-10-10T09:37:06.540Z,8.93
2022-10-10T09:39:39.949Z,9.70
2022-10-10T09:42:13.569Z,8.63
2022-10-10T09:44:44.847Z,10.90
2022-10-10T09:47:15.492Z,10.18
2022-10-10T09:49:45.006Z,9.10
2022-10-10T09:52:28.802Z,9.57
2022-10-10T09:55:02.422Z,9.73
2022-10-10T09:57:37.905Z,12.65
2022-10-10T10:00:29.199Z,9.60
2022-10-10T10:03:22.884Z,9.38
2022-10-10T10:05:58.497Z,9.10
2022-10-10T10:08:29.900Z,9.40
2022-10-10T10:10:59.742Z,12.85
2022-10-10T10:13:31.875Z,8.15
2022-10-10T10:16:08.902Z,13.10
2022-10-10T10:18:42.949Z,11.13
2022-10-10T10:21:16.149Z,8.50
2022-10-10T10:23:51.721Z,12.25
2022-10-10T10:26:23.470Z,9.00
2022-10-10T10:28:53.647Z,10.00
2022-10-10T10:31:42.536Z,11.05
2022-10-10T10:34:36.701Z,9.45
2022-10-10T10:37:15.080Z,14.73
2022-10-10T10:39:54.090Z,10.32
2022-10-10T10:42:36.751Z,8.07
2022-10-10T10:45:16.344Z,10.95
2022-10-10T10:48:00.145Z,12.00
2022-10-10T10:50:38.100Z,10.48
2022-10-10T10:53:17.208Z,8.88
2022-10-10T10:55:51.154Z,8.38
2022-10-10T11:01:55.855Z,7.35
2022-10-10T11:05:18.787Z,12.27
2022-10-10T11:07:52.396Z,8.32
2022-10-10T11:10:29.070Z,8.82
2022-10-10T11:13:05.194Z,7.68
2022-10-10T11:16:04.960Z,11.55
2022-10-10T11:18:31.892Z,10.15
2022-10-10T11:21:05.559Z,11.75
2022-10-10T11:23:38.545Z,11.00
2022-10-10T11:26:11.463Z,10.02
2022-10-10T11:28:49.305Z,9.90
2022-10-10T11:31:24.741Z,8.73
2022-10-10T11:33:59.025Z,9.82
2022-10-10T11:36:33.236Z,11.98
2022-10-10T11:39:06.702Z,10.43
2022-10-10T11:41:39.138Z,9.02
2022-10-10T11:44:13.611Z,8.80
2022-10-10T11:46:46.792Z,8.73
2022-10-10T11:49:23.406Z,7.30
2022-10-10T11:52:34.770Z,12.40
2022-10-10T11:55:11.680Z,7.78
2022-10-10T11:57:46.461Z,8.45
2022-10-10T12:00:17.426Z,8.18
2022-10-10T12:02:47.522Z,13.15
2022-10-10T12:05:24.717Z,8.35
2022-10-10T12:08:17.884Z,10.68
2022-10-10T12:10:54.258Z,11.80
2022-10-10T12:13:29.906Z,9.73
2022-10-10T12:16:03.396Z,16.90
2022-10-10T12:18:39.645Z,6.93
2022-10-10T12:21:10.602Z,6.40
2022-10-10T12:23:43.082Z,7.43
2022-10-10T12:26:17.765Z,8.18
2022-10-10T12:29:05.550Z,11.15
2022-10-10T12:31:38.322Z,10.23
2022-10-10T12:34:17.709Z,12.77
2022-10-10T12:37:12.518Z,8.57
2022-10-10T12:40:03.344Z,7.10
2022-10-10T12:42:34.128Z,8.30
2022-10-10T12:45:02.700Z,7.63
2022-10-10T12:48:00.278Z,7.25
2022-10-10T12:50:28.651Z,9.02
2022-10-10T12:53:00.468Z,9.27
2022-10-10T12:55:33.442Z,8.43
2022-10-10T12:58:04.876Z,9.23
2022-10-10T13:00:40.875Z,12.13
2022-10-10T13:03:14.367Z,7.22
2022-10-10T13:05:43.147Z,8.43
2022-10-10T13:08:17.313Z,11.90
2022-10-10T13:11:04.101Z,8.13
2022-10-10T13:13:33.144Z,10.43
2022-10-10T13:16:08.662Z,8.90
2022-10-10T13:18:39.206Z,11.00
2022-10-10T13:21:10.740Z,10.40
2022-10-10T13:23:43.908Z,7.93
2022-10-10T13:26:23.361Z,11.23
2022-10-10T13:28:53.001Z,10.40
2022-10-10T13:31:21.925Z,6.15
2022-10-10T13:33:50.751Z,10.80
2022-10-10T13:36:22.853Z,12.25
2022-10-10T13:38:52.366Z,7.63
2022-10-10T13:41:23.209Z,11.07
2022-10-10T13:43:52.223Z,10.32
2022-10-10T13:46:30.717Z,8.68
2022-10-10T13:48:59.940Z,9.43
2022-10-10T13:51:43.121Z,11.93
2022-10-10T13:54:50.389Z,10.00
2022-10-10T13:57:24.294Z,10.57
2022-10-10T14:00:02.910Z,10.05
2022-10-10T14:02:40.568Z,8.90
2022-10-10T14:05:16.196Z,11.15
2022-10-10T14:07:51.914Z,9.82
2022-10-10T14:10:24.430Z,10.90
2022-10-10T14:12:57.489Z,7.93
2022-10-10T14:15:37.911Z,8.45
2022-10-10T14:18:17.197Z,8.65
2022-10-10T14:20:46.166Z,9.65
2022-10-10T14:23:15.428Z,12.20
2022-10-10T14:25:46.802Z,10.07
2022-10-10T14:28:20.769Z,8.50
2022-10-10T14:30:50.345Z,11.20
2022-10-10T14:33:20.822Z,12.23
2022-10-10T14:35:51.432Z,9.48
2022-10-10T14:38:20.413Z,11.77
2022-10-10T14:40:50.687Z,11.43
2022-10-10T14:43:22.865Z,12.02
2022-10-10T14:45:53.305Z,7.93
2022-10-10T14:48:22.294Z,9.73
2022-10-10T14:50:52.584Z,9.43
2022-10-10T14:53:21.344Z,12.60
2022-10-10T14:55:53.920Z,9.55
2022-10-10T14:58:26.416Z,11.25
2022-10-10T15:00:55.308Z,11.07
2022-10-10T15:03:24.282Z,10.15
2022-10-10T15:05:52.993Z,7.43
2022-10-10T15:08:22.296Z,8.85
2022-10-10T15:10:51.207Z,11.52
2022-10-10T15:13:20.033Z,11.50
2022-10-10T15:15:50.057Z,10.02
2022-10-10T15:18:49.315Z,12.07
2022-10-10T15:21:11.704Z,8.77
2022-10-10T15:23:40.438Z,11.18
2022-10-10T15:26:09.545Z,9.57
2022-10-10T15:28:38.189Z,10.70
2022-10-10T15:31:08.516Z,9.07
2022-10-10T15:33:37.119Z,7.68
2022-10-10T15:36:10.174Z,8.40
2022-10-10T15:38:39.540Z,12.82
2022-10-10T15:41:10.284Z,9.90
2022-10-10T15:43:45.765Z,9.07
2022-10-10T15:46:15.853Z,8.00
2022-10-10T15:48:44.463Z,10.38
2022-10-10T15:51:13.460Z,7.10
2022-10-10T15:53:42.070Z,8.32
2022-10-10T15:56:12.612Z,10.10
2022-10-10T15:58:42.176Z,7.75
2022-10-10T16:01:12.654Z,10.25
2022-10-10T16:03:43.461Z,10.45
2022-10-10T16:06:12.774Z,13.60
2022-10-10T16:08:41.366Z,12.75
2022-10-10T16:11:12.106Z,8.98
2022-10-10T16:13:41.798Z,11.02
2022-10-10T16:16:13.161Z,11.93
2022-10-10T16:18:44.560Z,9.23
2022-10-10T16:21:14.502Z,15.05
2022-10-10T16:23:43.082Z,12.50
2022-10-10T16:26:15.727Z,10.50
2022-10-10T16:28:44.369Z,10.05
2022-10-10T16:31:14.857Z,11.20
2022-10-10T16:33:46.026Z,7.55
2022-10-10T16:36:16.933Z,9.65
2022-10-10T16:38:46.182Z,8.80
2022-10-10T16:41:35.611Z,9.20
2022-10-10T16:44:06.729Z,11.15
2022-10-10T16:46:35.521Z,13.55
2022-10-10T16:49:05.590Z,10.77
2022-10-10T16:51:34.331Z,13.65
2022-10-10T16:54:05.278Z,16.83
2022-10-10T16:56:34.270Z,13.35
2022-10-10T16:59:03.409Z,12.07
2022-10-10T17:01:32.188Z,10.45
2022-10-10T17:04:01.946Z,11.80
2022-10-10T17:06:37.561Z,14.13
2022-10-10T17:09:08.408Z,11.82
2022-10-10T17:11:37.667Z,14.15
2022-10-10T17:14:06.274Z,17.75
2022-10-10T17:19:23.708Z,15.57
2022-10-10T17:21:53.888Z,13.10
2022-10-10T17:24:22.566Z,14.53
2022-10-10T17:26:51.101Z,16.20
2022-10-10T17:29:19.743Z,14.80
2022-10-10T17:31:48.586Z,17.70
2022-10-10T17:34:17.423Z,14.20
2022-10-10T17:36:46.146Z,17.83
2022-10-10T17:39:16.289Z,19.37
2022-10-10T17:41:46.058Z,17.20
2022-10-10T17:44:14.777Z,15.73
2022-10-10T17:46:45.538Z,16.60
2022-10-10T17:49:15.202Z,15.27
2022-10-10T17:51:43.876Z,16.03
2022-10-10T17:54:13.587Z,17.50
2022-10-10T17:56:44.737Z,17.00
2022-10-10T17:59:13.945Z,17.73
2022-10-10T18:01:42.752Z,17.47
2022-10-10T18:04:14.496Z,19.67
2022-10-10T18:06:43.260Z,18.77
2022-10-10T18:09:11.987Z,21.90
2022-10-10T18:11:40.800Z,17.83
2022-10-10T18:14:10.942Z,25.17
2022-10-10T18:16:39.524Z,19.53
2022-10-10T18:19:08.984Z,19.23
2022-10-10T18:21:38.147Z,19.00
2022-10-10T18:24:07.284Z,19.90
2022-10-10T18:26:36.693Z,19.57
2022-10-10T18:29:05.782Z,21.60
2022-10-10T18:31:38.251Z,22.50
2022-10-10T18:34:08.919Z,19.83
2022-10-10T18:36:39.682Z,25.93
2022-10-10T18:39:10.243Z,19.03
2022-10-10T18:41:38.997Z,21.87
2022-10-10T18:44:11.623Z,21.30
2022-10-10T18:46:42.201Z,19.83
2022-10-10T18:49:13.661Z,23.33
2022-10-10T18:51:43.582Z,21.30
2022-10-10T18:54:15.309Z,19.77
2022-10-10T18:56:44.241Z,23.33
2022-10-10T18:59:15.281Z,21.97
2022-10-10T19:01:46.768Z,23.80
2022-10-10T19:04:17.034Z,22.87
2022-10-10T19:06:45.886Z,21.77
2022-10-10T19:09:16.692Z,23.90
2022-10-10T19:11:47.470Z,27.43
2022-10-10T19:14:18.281Z,23.17
2022-10-10T19:16:49.671Z,24.57
2022-10-10T19:19:20.416Z,25.70
2022-10-10T19:21:49.868Z,26.43
2022-10-10T19:24:21.160Z,23.00
2022-10-10T19:26:56.861Z,23.50
2022-10-10T19:29:27.129Z,21.70
2022-10-10T19:31:57.377Z,23.87
2022-10-10T19:34:26.062Z,19.80
2022-10-10T19:36:54.938Z,22.63
2022-10-10T19:39:23.584Z,21.47
2022-10-10T19:41:52.648Z,22.90
2022-10-10T19:44:21.336Z,20.67
2022-10-10T19:46:49.972Z,22.27
2022-10-10T19:49:20.144Z,27.13
2022-10-10T19:51:48.845Z,24.07
2022-10-10T19:54:17.514Z,22.60
2022-10-10T19:56:46.116Z,24.03
2022-10-10T19:59:14.738Z,22.23
2022-10-10T20:01:43.387Z,22.10
2022-10-10T20:04:12.116Z,24.90
2022-10-10T20:06:43.551Z,22.83
2022-10-10T20:09:12.384Z,21.27
2022-10-10T20:11:41.621Z,22.50
2022-10-10T20:14:10.844Z,24.57
2022-10-10T20:16:39.716Z,22.27
2022-10-10T20:19:08.695Z,22.90
2022-10-10T20:21:37.372Z,22.57
2022-10-10T20:24:10.454Z,23.57
2022-10-10T20:26:39.144Z,22.70
2022-10-10T20:29:08.724Z,22.73
2022-10-10T20:31:38.287Z,24.13
2022-10-10T20:34:07.894Z,23.53
2022-10-10T20:36:37.441Z,21.10
2022-10-10T20:39:09.524Z,25.57
2022-10-10T20:41:39.345Z,22.03
2022-10-10T20:44:09.444Z,22.57
2022-10-10T20:46:40.953Z,24.23
2022-10-10T20:49:14.337Z,26.63
2022-10-10T20:51:48.389Z,20.47
2022-10-10T20:54:19.800Z,25.57
2022-10-10T20:56:49.799Z,24.43
2022-10-10T20:59:19.354Z,23.17
2022-10-10T21:01:48.200Z,22.50
2022-10-10T21:04:17.185Z,22.70
2022-10-10T21:06:45.860Z,26.03
2022-10-10T21:09:17.425Z,22.53
2022-10-10T21:11:50.581Z,24.43
2022-10-10T21:14:20.016Z,26.07
2022-10-10T21:16:50.587Z,23.13
2022-10-10T21:19:19.347Z,20.00
2022-10-10T21:21:48.652Z,24.60
2022-10-10T21:24:18.934Z,21.30
2022-10-10T21:26:49.172Z,19.93
2022-10-10T21:29:18.227Z,22.03
2022-10-10T21:31:46.855Z,19.10
2022-10-10T21:34:18.957Z,22.77
2022-10-10T21:36:47.830Z,20.80
2022-10-10T21:39:18.309Z,21.50
2022-10-10T21:41:47.012Z,25.37
2022-10-10T21:44:16.762Z,17.93
2022-10-10T21:46:45.324Z,19.17
2022-10-10T21:49:14.123Z,18.80
2022-10-10T21:51:45.601Z,18.97
2022-10-10T21:54:14.974Z,14.93
2022-10-10T21:56:45.186Z,17.80
2022-10-10T21:59:14.092Z,18.87
2022-10-10T22:01:44.271Z,17.43
2022-10-10T22:04:13.053Z,15.80
2022-10-10T22:06:41.946Z,14.23
2022-10-10T22:09:10.523Z,14.87
2022-10-10T22:11:39.302Z,15.33
2022-10-10T22:14:09.473Z,19.13
2022-10-10T22:16:38.223Z,18.20
2022-10-10T22:19:07.052Z,17.07
2022-10-10T22:21:35.825Z,21.20
2022-10-10T22:24:07.234Z,20.80
2022-10-10T22:26:36.435Z,15.50
2022-10-10T22:29:06.062Z,17.73
2022-10-10T22:31:37.974Z,17.90
2022-10-10T22:34:07.100Z,16.97
2022-10-10T22:36:36.000Z,18.50
2022-10-10T22:39:05.774Z,15.80
2022-10-10T22:41:34.483Z,15.80
2022-10-10T22:44:03.295Z,18.43
2022-10-10T22:46:31.981Z,16.47
2022-10-10T22:49:02.179Z,16.30
2022-10-10T22:51:31.079Z,16.37
2022-10-10T22:53:59.797Z,17.47
2022-10-10T22:56:28.437Z,19.17
2022-10-10T22:58:57.029Z,18.63
2022-10-10T23:01:27.207Z,18.70
2022-10-10T23:04:00.404Z,18.73
2022-10-10T23:06:30.920Z,19.13
2022-10-10T23:08:59.619Z,18.17
2022-10-10T23:11:28.412Z,18.80
2022-10-10T23:13:57.203Z,17.30
2022-10-10T23:16:26.080Z,16.37
2022-10-10T23:18:54.713Z,20.47
2022-10-10T23:21:23.429Z,19.13
2022-10-10T23:23:53.776Z,18.53
2022-10-10T23:26:22.372Z,18.70
2022-10-10T23:28:51.512Z,18.30
2022-10-10T23:31:20.297Z,19.97
2022-10-10T23:33:49.112Z,20.23
2022-10-10T23:36:17.878Z,17.07
2022-10-10T23:38:46.565Z,17.17
2022-10-10T23:41:16.797Z,17.03
2022-10-10T23:43:45.619Z,17.27
2022-10-10T23:46:14.759Z,19.67
2022-10-10T23:48:43.624Z,18.47
2022-10-10T23:51:13.204Z,18.63
2022-10-10T23:53:41.911Z,15.47
2022-10-10T23:56:11.038Z,19.13
2022-10-10T23:58:41.160Z,17.87
